Anthony, NM

8:20 PM MDT on March 29, 2015 (GMT -0600)
Foothills of Franklin Mountains | | Change Station
CLOSE
Current Station
Personal Weather Station
Location: El Paso, TX
Elevation: 4242 ft
Nearby Weather Stations

Elev 4242 ft 31.88 °N, 106.54 °W | Updated 8 seconds ago

Overcast
Overcast
74.1 °F
Feels Like 74 °F
N
0.0
Wind Variable Wind from North
Gusts 0.0 mph

Today
High -- | Low -- °F
--% Chance of Precip.
Yesterday
High -- | Low -- °F
Precip. -- in
6:58 AM 7:23 PM
Waxing Gibbous, 76% visible
Pressure 29.96 in
Visibility 10.0 miles
Clouds Clear
Heat Index 74 °F
Dew Point 14 °F
Humidity 10%
Rainfall 0.00 in
Snow Depth Not available.
UV 0 out of 12
Pollen 10.60 out of 12
Air Quality Not available.
Flu Activity Not available.
METAR KBIF 300158Z AUTO 28005KT 10SM CLR 25/M12 A3010 RMK AO2 SLP143 T02471117

More Conditions Fewer Conditions

Pressure 29.96 in
Visibility 10.0 miles
Clouds Clear
Heat Index 74 °F
Dew Point 14 °F
Humidity 10%
Rainfall 0.00 in
Snow Depth Not available.
UV 0 out of 12
Pollen 10.60 out of 12
Air Quality Not available.
Flu Activity Not available.
METAR KBIF 300158Z AUTO 28005KT 10SM CLR 25/M12 A3010 RMK AO2 SLP143 T02471117

More Conditions Fewer Conditions

10-Day Weather Forecast

Almanac

Astronomy

Mar. 29, 2015 Rise Set
Actual Time
Civil Twilight
Nautical Twilight
Astronomical Twilight
Moon
Length of Visible Light
Length of Day
Tomorrow will be .
, % of the Moon is Illuminated

Today's Extremes

State Highs State Lows

Community

WunderPhotos

Upload Photos

1,809,414 photos uploaded!

WunderBlogs® & News

Nearby

Air Quality

  Air Quality AQ Index Pollutant
Not available.

Snow Depth

Station Depth Elevation

Earthquake Activity

City Distance Mag. Time & Date
Minimum magnitude displayed is 2.5.

Coastal Water Temperatures

Place Temperature

Stations

Nearby Weather Stations

Station Location Temp. Windchill Dew Point Humidity Wind Precip. Elev Updated Type